Time;durP1;ratioP1;P1;durP2;ratioP2;P2;SDS_P1;SDS_P2;PMS_P1;PMS_P2;Temp;Humidity;BMP_temperature;BMP_pressure;BME280_temperature;BME280_humidity;BME280_pressure;Samples;Min_cycle;Max_cycle;Signal;HPM_P1;HPM_P2
2022/09/25 00:00:45;;;;;;;0.10;0.10;;;;;;;;;;5042003;28;20243;-76
2022/09/25 00:03:12;;;;;;;0.10;0.10;;;;;;;;;;5065471;28;20206;-76
2022/09/25 00:05:39;;;;;;;0.10;0.10;;;;;;;;;;5041649;28;20247;-75
2022/09/25 00:08:05;;;;;;;0.10;0.10;;;;;;;;;;5065783;28;20211;-76
2022/09/25 00:10:32;;;;;;;0.00;0.00;;;;;;;;;;5039895;28;20241;-75
2022/09/25 00:12:58;;;;;;;0.10;0.10;;;;;;;;;;5067223;28;20193;-77
2022/09/25 00:15:25;;;;;;;0.10;0.10;;;;;;;;;;5037712;28;20291;-76
2022/09/25 00:17:53;;;;;;;0.00;0.00;;;;;;;;;;5068936;28;20216;-76
2022/09/25 00:20:19;;;;;;;0.10;0.10;;;;;;;;;;5035372;28;20238;-76
2022/09/25 00:22:45;;;;;;;0.10;0.10;;;;;;;;;;5070607;28;20200;-76
2022/09/25 00:25:13;;;;;;;0.10;0.10;;;;;;;;;;5034265;28;20251;-75
2022/09/25 00:27:40;;;;;;;0.10;0.10;;;;;;;;;;5072655;28;20489;-76
2022/09/25 00:30:07;;;;;;;0.10;0.10;;;;;;;;;;5033125;28;20235;-75
2022/09/25 00:32:33;;;;;;;0.00;0.00;;;;;;;;;;5073306;28;20313;-75
2022/09/25 00:35:01;;;;;;;0.10;0.10;;;;;;;;;;5042721;28;20211;-76
2022/09/25 00:37:27;;;;;;;0.10;0.10;;;;;;;;;;5064072;28;20245;-76
2022/09/25 00:39:54;;;;;;;0.10;0.10;;;;;;;;;;5042044;28;20230;-76
2022/09/25 00:42:21;;;;;;;0.00;0.00;;;;;;;;;;5064443;28;20583;-76
2022/09/25 00:44:57;;;;;;;0.10;0.10;;;;;;;;;;5042459;28;20355;-75
2022/09/25 00:47:30;;;;;;;0.10;0.10;;;;;;;;;;5064164;28;20254;-76
2022/09/25 00:49:58;;;;;;;0.10;0.10;;;;;;;;;;5042378;28;20411;-76
2022/09/25 00:52:26;;;;;;;0.10;0.10;;;;;;;;;;5064042;28;20244;-76
2022/09/25 00:54:54;;;;;;;0.03;0.03;;;;;;;;;;5041834;28;20215;-76
2022/09/25 00:57:21;;;;;;;0.10;0.10;;;;;;;;;;5063875;28;20390;-76
2022/09/25 00:59:51;;;;;;;0.10;0.10;;;;;;;;;;5041951;28;20228;-77
2022/09/25 01:02:20;;;;;;;0.10;0.10;;;;;;;;;;5063806;28;20306;-76
2022/09/25 01:04:47;;;;;;;0.10;0.10;;;;;;;;;;5041959;28;20214;-75
2022/09/25 01:07:14;;;;;;;0.10;0.10;;;;;;;;;;5064042;28;20561;-75
2022/09/25 01:09:42;;;;;;;0.10;0.10;;;;;;;;;;5042192;28;20205;-76
2022/09/25 01:12:09;;;;;;;0.10;0.10;;;;;;;;;;5063791;28;20245;-76
2022/09/25 01:14:35;;;;;;;0.10;0.10;;;;;;;;;;5041830;28;20228;-76
2022/09/25 01:17:05;;;;;;;0.10;0.10;;;;;;;;;;5063135;28;20264;-76
2022/09/25 01:19:39;;;;;;;0.10;0.10;;;;;;;;;;5041623;28;20222;-77
2022/09/25 01:22:10;;;;;;;0.10;0.10;;;;;;;;;;5064298;28;20244;-76
2022/09/25 01:24:48;;;;;;;0.10;0.10;;;;;;;;;;5041722;28;20218;-76
2022/09/25 01:27:33;;;;;;;0.00;0.00;;;;;;;;;;5063679;28;20248;-75
2022/09/25 01:30:05;;;;;;;0.10;0.10;;;;;;;;;;5042205;28;20211;-75
2022/09/25 01:32:34;;;;;;;0.10;0.10;;;;;;;;;;5032306;28;20267;-76
2022/09/25 01:35:02;;;;;;;0.10;0.10;;;;;;;;;;5045736;28;20204;-76
2022/09/25 01:37:30;;;;;;;0.10;0.10;;;;;;;;;;5067558;28;20252;-76
2022/09/25 01:40:02;;;;;;;0.10;0.10;;;;;;;;;;5045519;28;20237;-77
2022/09/25 01:42:30;;;;;;;0.10;0.10;;;;;;;;;;5067477;28;20592;-76
2022/09/25 01:44:58;;;;;;;0.10;0.10;;;;;;;;;;5045782;28;20218;-77
2022/09/25 01:47:27;;;;;;;0.10;0.10;;;;;;;;;;5067276;28;20307;-76
2022/09/25 01:49:55;;;;;;;0.10;0.10;;;;;;;;;;5045573;28;20377;-76
2022/09/25 01:52:24;;;;;;;0.10;0.10;;;;;;;;;;5067325;28;20249;-76
2022/09/25 01:54:53;;;;;;;0.10;0.10;;;;;;;;;;5045352;28;20231;-77
2022/09/25 01:57:22;;;;;;;0.10;0.10;;;;;;;;;;5067126;28;20240;-76
2022/09/25 01:59:49;;;;;;;0.00;0.00;;;;;;;;;;5045539;28;20552;-76
2022/09/25 02:02:17;;;;;;;0.10;0.10;;;;;;;;;;5067081;28;20240;-76
2022/09/25 02:04:48;;;;;;;0.10;0.10;;;;;;;;;;5045292;28;20237;-76
2022/09/25 02:07:19;;;;;;;0.10;0.10;;;;;;;;;;5067007;28;20252;-76
2022/09/25 02:09:51;;;;;;;0.10;0.10;;;;;;;;;;5045195;28;20274;-75
2022/09/25 02:12:18;;;;;;;0.10;0.10;;;;;;;;;;5066959;28;20320;-76
2022/09/25 02:14:48;;;;;;;0.10;0.10;;;;;;;;;;5045310;28;20209;-75
2022/09/25 02:20:30;;;;;;;0.10;0.10;;;;;;;;;;5067034;28;20350;-75
2022/09/25 02:22:51;;;;;;;0.10;0.10;;;;;;;;;;5044844;28;20228;-75
2022/09/25 02:25:19;;;;;;;0.10;0.10;;;;;;;;;;5037809;28;20205;-76
2022/09/25 02:27:46;;;;;;;0.10;0.10;;;;;;;;;;5073048;28;20201;-75
2022/09/25 02:30:12;;;;;;;0.10;0.10;;;;;;;;;;5036616;28;20439;-75
2022/09/25 02:32:38;;;;;;;0.10;0.10;;;;;;;;;;5074911;28;20201;-77
2022/09/25 02:35:06;;;;;;;0.00;0.00;;;;;;;;;;5043584;28;20281;-74
2022/09/25 02:37:33;;;;;;;0.10;0.10;;;;;;;;;;5076564;28;20403;-75
2022/09/25 02:40:00;;;;;;;0.10;0.10;;;;;;;;;;5044659;28;20241;-75
2022/09/25 02:42:32;;;;;;;0.10;0.10;;;;;;;;;;5066509;28;20421;-76
2022/09/25 02:45:16;;;;;;;0.10;0.10;;;;;;;;;;5043567;28;20229;-77
2022/09/25 02:47:47;;;;;;;0.10;0.10;;;;;;;;;;5043957;28;20226;-76
2022/09/25 02:50:21;;;;;;;0.10;0.10;;;;;;;;;;5036792;28;20278;-76
2022/09/25 02:52:50;;;;;;;0.10;0.10;;;;;;;;;;5072329;28;20202;-75
2022/09/25 02:55:19;;;;;;;0.10;0.10;;;;;;;;;;5037385;28;20511;-76
2022/09/25 02:57:49;;;;;;;0.00;0.00;;;;;;;;;;5072016;28;20217;-76
2022/09/25 03:00:15;;;;;;;0.10;0.10;;;;;;;;;;5036726;28;20230;-76
2022/09/25 03:02:42;;;;;;;0.10;0.10;;;;;;;;;;5073244;28;20205;-76
2022/09/25 03:05:11;;;;;;;0.10;0.10;;;;;;;;;;5035034;28;20300;-75
2022/09/25 03:10:19;;;;;;;0.10;0.10;;;;;;;;;;5038883;28;20206;-76
2022/09/25 03:12:45;;;;;;;0.10;0.10;;;;;;;;;;5072004;28;20202;-76
2022/09/25 03:15:12;;;;;;;0.10;0.10;;;;;;;;;;5035864;28;20205;-76
2022/09/25 03:17:39;;;;;;;0.10;0.10;;;;;;;;;;5074180;28;20393;-76
2022/09/25 03:20:05;;;;;;;0.10;0.10;;;;;;;;;;5039309;28;20292;-74
2022/09/25 03:22:32;;;;;;;0.10;0.10;;;;;;;;;;5075416;28;20221;-76
2022/09/25 03:24:59;;;;;;;0.10;0.10;;;;;;;;;;5043856;28;20212;-77
2022/09/25 03:27:27;;;;;;;0.10;0.10;;;;;;;;;;5065494;28;20241;-76
2022/09/25 03:29:54;;;;;;;0.10;0.10;;;;;;;;;;5043753;28;20202;-76
2022/09/25 03:32:20;;;;;;;0.00;0.00;;;;;;;;;;5065346;28;20249;-76
2022/09/25 03:34:46;;;;;;;0.10;0.10;;;;;;;;;;5043474;28;20214;-76
2022/09/25 03:37:13;;;;;;;0.10;0.10;;;;;;;;;;5065262;28;20468;-76
2022/09/25 03:39:39;;;;;;;0.10;0.10;;;;;;;;;;5043414;28;20271;-76
2022/09/25 03:42:07;;;;;;;0.03;0.03;;;;;;;;;;5065337;28;20246;-75
2022/09/25 03:44:33;;;;;;;0.10;0.10;;;;;;;;;;5043558;28;20283;-75
2022/09/25 03:47:00;;;;;;;0.10;0.10;;;;;;;;;;5063495;28;20435;-77
2022/09/25 03:49:27;;;;;;;0.10;0.10;;;;;;;;;;5044611;28;20205;-76
2022/09/25 03:51:54;;;;;;;0.10;0.10;;;;;;;;;;5061876;28;20316;-76
2022/09/25 03:54:20;;;;;;;0.10;0.10;;;;;;;;;;5045656;28;20199;-75
2022/09/25 03:56:47;;;;;;;0.10;0.10;;;;;;;;;;5058759;28;20279;-76
2022/09/25 03:59:15;;;;;;;0.10;0.10;;;;;;;;;;5048478;28;20270;-75
2022/09/25 04:01:41;;;;;;;0.10;0.10;;;;;;;;;;5055404;28;20246;-76
2022/09/25 04:04:08;;;;;;;0.10;0.10;;;;;;;;;;5051635;28;20205;-76
2022/09/25 04:06:35;;;;;;;0.10;0.10;;;;;;;;;;5053735;28;20266;-76
2022/09/25 04:09:01;;;;;;;0.10;0.10;;;;;;;;;;5053618;28;20264;-76
2022/09/25 04:11:27;;;;;;;0.10;0.10;;;;;;;;;;5054531;28;20247;-76
2022/09/25 04:13:55;;;;;;;0.10;0.10;;;;;;;;;;5052968;28;20217;-76
2022/09/25 04:16:23;;;;;;;0.10;0.10;;;;;;;;;;5053052;28;20248;-76
2022/09/25 04:18:50;;;;;;;0.10;0.10;;;;;;;;;;5053675;28;20269;-77
2022/09/25 04:21:16;;;;;;;0.10;0.10;;;;;;;;;;5051118;28;20328;-76
2022/09/25 04:24:46;;;;;;;0.10;0.10;;;;;;;;;;5055977;28;20211;-76
2022/09/25 04:26:29;;;;;;;0.00;0.00;;;;;;;;;;5054759;28;20239;-76
2022/09/25 04:28:55;;;;;;;0.10;0.10;;;;;;;;;;5052411;28;20276;-77
2022/09/25 04:31:22;;;;;;;0.10;0.10;;;;;;;;;;5052247;28;20247;-76
2022/09/25 04:33:51;;;;;;;0.10;0.10;;;;;;;;;;5054610;28;20373;-76
2022/09/25 04:36:18;;;;;;;0.10;0.10;;;;;;;;;;5051652;28;20242;-76
2022/09/25 04:38:44;;;;;;;0.10;0.10;;;;;;;;;;5055133;28;20215;-77
2022/09/25 04:41:11;;;;;;;0.10;0.10;;;;;;;;;;5050069;28;20246;-75
2022/09/25 04:43:40;;;;;;;0.10;0.10;;;;;;;;;;5056533;28;20380;-75
2022/09/25 04:46:07;;;;;;;0.10;0.10;;;;;;;;;;5048431;28;20247;-77
2022/09/25 04:48:34;;;;;;;0.10;0.10;;;;;;;;;;5057554;28;20280;-76
2022/09/25 04:51:03;;;;;;;0.10;0.10;;;;;;;;;;5047015;28;20443;-77
2022/09/25 04:53:30;;;;;;;2.10;2.00;;;;;;;;;;5058525;28;20275;-76
2022/09/25 04:56:00;;;;;;;0.10;0.10;;;;;;;;;;5045900;28;20252;-77
2022/09/25 04:58:26;;;;;;;0.10;0.10;;;;;;;;;;5059487;28;20255;-76
2022/09/25 05:00:54;;;;;;;0.10;0.10;;;;;;;;;;5044970;28;20278;-76
2022/09/25 05:03:20;;;;;;;0.10;0.10;;;;;;;;;;5060652;28;20560;-76
2022/09/25 05:05:49;;;;;;;0.10;0.10;;;;;;;;;;5043303;28;20236;-76
2022/09/25 05:08:15;;;;;;;0.10;0.10;;;;;;;;;;5066000;28;20210;-76
2022/09/25 05:10:43;;;;;;;0.10;0.10;;;;;;;;;;5045647;28;20238;-76
2022/09/25 05:13:10;;;;;;;0.10;0.10;;;;;;;;;;5067863;28;20193;-75
2022/09/25 05:15:37;;;;;;;0.10;0.10;;;;;;;;;;5044343;28;20592;-75
2022/09/25 05:18:12;;;;;;;0.10;0.10;;;;;;;;;;5069666;28;20200;-76
2022/09/25 05:20:39;;;;;;;0.10;0.10;;;;;;;;;;5044837;28;20358;-76
2022/09/25 05:23:07;;;;;;;0.10;0.10;;;;;;;;;;5069003;28;20204;-77
2022/09/25 05:25:33;;;;;;;0.10;0.10;;;;;;;;;;5043276;28;20338;-76
2022/09/25 05:28:00;;;;;;;0.10;0.10;;;;;;;;;;5070507;28;20489;-76
2022/09/25 05:30:27;;;;;;;0.10;0.10;;;;;;;;;;5041720;28;20429;-76
2022/09/25 05:32:56;;;;;;;0.10;0.10;;;;;;;;;;5071745;28;20262;-75
2022/09/25 05:35:23;;;;;;;0.10;0.10;;;;;;;;;;5040852;28;20405;-77
2022/09/25 05:37:50;;;;;;;0.10;0.10;;;;;;;;;;5072634;28;20195;-75
2022/09/25 05:40:19;;;;;;;0.10;0.10;;;;;;;;;;5038631;28;20226;-76
2022/09/25 05:42:46;;;;;;;0.10;0.10;;;;;;;;;;5073502;28;20193;-75
2022/09/25 05:45:13;;;;;;;0.10;0.10;;;;;;;;;;5037584;28;20268;-76
2022/09/25 05:47:39;;;;;;;0.10;0.10;;;;;;;;;;5075513;28;20413;-76
2022/09/25 05:50:07;;;;;;;0.10;0.10;;;;;;;;;;5038295;28;20276;-75
2022/09/25 05:52:33;;;;;;;0.10;0.10;;;;;;;;;;5076410;28;20227;-75
2022/09/25 05:55:02;;;;;;;0.10;0.10;;;;;;;;;;5045632;28;20205;-76
2022/09/25 05:57:32;;;;;;;0.10;0.10;;;;;;;;;;5067234;28;20306;-75
2022/09/25 05:59:59;;;;;;;0.10;0.10;;;;;;;;;;5045372;28;20209;-76
2022/09/25 06:02:25;;;;;;;0.10;0.10;;;;;;;;;;5067093;28;20241;-77
2022/09/25 06:04:51;;;;;;;0.10;0.10;;;;;;;;;;5045645;28;20234;-77
2022/09/25 06:07:18;;;;;;;0.10;0.10;;;;;;;;;;5067264;28;20236;-76
2022/09/25 06:09:44;;;;;;;0.00;0.00;;;;;;;;;;5045133;28;20207;-76
2022/09/25 06:12:10;;;;;;;0.10;0.10;;;;;;;;;;5066664;28;20248;-76
2022/09/25 06:14:39;;;;;;;0.10;0.10;;;;;;;;;;5045214;28;20275;-75
2022/09/25 06:17:07;;;;;;;0.10;0.10;;;;;;;;;;5066807;28;20249;-77
2022/09/25 06:19:34;;;;;;;0.10;0.10;;;;;;;;;;5043621;28;20211;-75
2022/09/25 06:22:00;;;;;;;0.10;0.10;;;;;;;;;;5065089;28;20415;-76
2022/09/25 06:24:26;;;;;;;0.10;0.10;;;;;;;;;;5045904;28;20408;-76
2022/09/25 06:26:53;;;;;;;0.10;0.10;;;;;;;;;;5063408;28;20243;-76
2022/09/25 06:29:19;;;;;;;0.10;0.10;;;;;;;;;;5047777;28;20462;-77
2022/09/25 06:31:46;;;;;;;0.10;0.10;;;;;;;;;;5061100;28;20295;-75
2022/09/25 06:34:13;;;;;;;0.10;0.10;;;;;;;;;;5049702;28;20210;-76
2022/09/25 06:36:39;;;;;;;0.10;0.10;;;;;;;;;;5059589;28;20262;-76
2022/09/25 06:39:05;;;;;;;0.10;0.10;;;;;;;;;;5051151;28;20204;-76
2022/09/25 06:41:32;;;;;;;0.33;0.33;;;;;;;;;;5057450;28;20310;-76
2022/09/25 06:43:58;;;;;;;0.10;0.10;;;;;;;;;;5053408;28;20215;-76
2022/09/25 06:46:25;;;;;;;0.10;0.10;;;;;;;;;;5055643;28;20252;-76
2022/09/25 06:48:54;;;;;;;0.10;0.10;;;;;;;;;;5054831;28;20479;-76
2022/09/25 06:51:20;;;;;;;0.10;0.10;;;;;;;;;;5054089;28;20236;-77
2022/09/25 06:53:47;;;;;;;0.10;0.10;;;;;;;;;;5056492;28;20213;-76
2022/09/25 06:56:13;;;;;;;0.10;0.10;;;;;;;;;;5052191;28;20474;-76
2022/09/25 06:58:39;;;;;;;0.10;0.10;;;;;;;;;;5058022;28;20232;-76
2022/09/25 07:01:09;;;;;;;0.10;0.10;;;;;;;;;;5050232;28;20251;-75
2022/09/25 07:03:48;;;;;;;0.10;0.10;;;;;;;;;;5058868;28;20244;-76
2022/09/25 07:06:16;;;;;;;0.10;0.10;;;;;;;;;;5052455;28;20276;-76
2022/09/25 07:08:43;;;;;;;0.10;0.10;;;;;;;;;;5057132;28;20287;-76
2022/09/25 07:11:11;;;;;;;0.10;0.10;;;;;;;;;;5051041;28;20238;-75
2022/09/25 07:13:38;;;;;;;0.10;0.10;;;;;;;;;;5057986;28;20204;-75
2022/09/25 07:16:05;;;;;;;0.10;0.10;;;;;;;;;;5049601;28;20309;-76
2022/09/25 07:18:32;;;;;;;0.10;0.10;;;;;;;;;;5059733;28;20378;-74
2022/09/25 07:21:02;;;;;;;0.10;0.10;;;;;;;;;;5047610;28;20258;-76
2022/09/25 07:23:30;;;;;;;0.10;0.10;;;;;;;;;;5060829;28;20272;-76
2022/09/25 07:25:57;;;;;;;0.10;0.10;;;;;;;;;;5047189;28;20449;-76
2022/09/25 07:28:23;;;;;;;0.00;0.00;;;;;;;;;;5062223;28;20212;-76
2022/09/25 07:30:49;;;;;;;0.10;0.10;;;;;;;;;;5044937;28;20240;-76
2022/09/25 07:33:16;;;;;;;0.10;0.10;;;;;;;;;;5063724;28;20214;-76
2022/09/25 07:35:42;;;;;;;0.10;0.10;;;;;;;;;;5043406;28;20283;-77
2022/09/25 07:38:09;;;;;;;0.10;0.10;;;;;;;;;;5065731;28;20207;-76
2022/09/25 07:40:37;;;;;;;0.10;0.10;;;;;;;;;;5041682;28;20471;-77
2022/09/25 07:43:03;;;;;;;0.10;0.10;;;;;;;;;;5066833;28;20238;-76
2022/09/25 07:45:30;;;;;;;0.10;0.10;;;;;;;;;;5040070;28;20254;-77
2022/09/25 07:47:56;;;;;;;0.10;0.10;;;;;;;;;;5068466;28;20207;-76
2022/09/25 07:50:23;;;;;;;0.10;0.10;;;;;;;;;;5037747;28;20209;-76
2022/09/25 07:52:49;;;;;;;0.10;0.10;;;;;;;;;;5070363;28;20189;-76
2022/09/25 07:55:17;;;;;;;0.10;0.10;;;;;;;;;;5035928;28;20508;-77
2022/09/25 07:57:45;;;;;;;0.10;0.10;;;;;;;;;;5071888;28;20279;-77
2022/09/25 08:00:12;;;;;;;0.10;0.10;;;;;;;;;;5034350;28;20212;-76
2022/09/25 08:02:38;;;;;;;0.10;0.10;;;;;;;;;;5072940;28;20215;-76
2022/09/25 08:05:05;;;;;;;0.03;0.03;;;;;;;;;;5042957;28;20374;-76
2022/09/25 08:07:31;;;;;;;0.10;0.10;;;;;;;;;;5031376;28;20309;-76
2022/09/25 08:09:58;;;;;;;0.00;0.00;;;;;;;;;;5042850;28;20208;-75
2022/09/25 08:12:24;;;;;;;0.10;0.10;;;;;;;;;;5064736;28;20246;-75
2022/09/25 08:14:52;;;;;;;0.10;0.10;;;;;;;;;;5043070;28;20242;-76
2022/09/25 08:17:19;;;;;;;0.10;0.10;;;;;;;;;;5064824;28;20351;-75
2022/09/25 08:19:45;;;;;;;0.10;0.10;;;;;;;;;;5042081;28;20361;-76
2022/09/25 08:22:12;;;;;;;0.10;0.10;;;;;;;;;;5064325;28;20302;-76
2022/09/25 08:24:38;;;;;;;0.03;0.03;;;;;;;;;;5042500;28;20205;-75
2022/09/25 08:27:06;;;;;;;0.00;0.00;;;;;;;;;;5064555;28;20304;-76
2022/09/25 08:29:33;;;;;;;0.10;0.10;;;;;;;;;;5042790;28;20254;-76
2022/09/25 08:32:01;;;;;;;0.10;0.10;;;;;;;;;;5062801;28;20311;-76
2022/09/25 08:34:27;;;;;;;0.10;0.10;;;;;;;;;;5043411;28;20277;-76
2022/09/25 08:36:53;;;;;;;0.00;0.00;;;;;;;;;;5061468;28;20519;-76
2022/09/25 08:39:20;;;;;;;0.20;0.20;;;;;;;;;;5044978;28;20212;-75
2022/09/25 08:41:47;;;;;;;0.10;0.10;;;;;;;;;;5058741;28;20556;-76
2022/09/25 08:44:21;;;;;;;0.10;0.10;;;;;;;;;;5046467;28;20205;-76
2022/09/25 08:49:38;;;;;;;0.10;0.10;;;;;;;;;;5042461;28;20454;-76
2022/09/25 08:52:07;;;;;;;0.10;0.10;;;;;;;;;;5064171;28;20306;-77
2022/09/25 08:54:34;;;;;;;0.10;0.10;;;;;;;;;;5042549;28;20281;-76
2022/09/25 08:57:04;;;;;;;0.07;0.07;;;;;;;;;;5063045;28;20251;-75
2022/09/25 08:59:31;;;;;;;0.10;0.10;;;;;;;;;;5042221;28;20390;-75
2022/09/25 09:01:59;;;;;;;0.10;0.10;;;;;;;;;;5062242;28;20238;-76
2022/09/25 09:04:29;;;;;;;0.10;0.10;;;;;;;;;;5043535;28;20553;-76
2022/09/25 09:06:58;;;;;;;0.10;0.10;;;;;;;;;;5061444;28;20285;-76
2022/09/25 09:09:27;;;;;;;0.03;0.03;;;;;;;;;;5044390;28;20557;-76
2022/09/25 09:11:56;;;;;;;0.00;0.00;;;;;;;;;;5060761;28;20238;-75
2022/09/25 09:14:26;;;;;;;0.10;0.10;;;;;;;;;;5044044;28;20293;-77
2022/09/25 09:16:56;;;;;;;0.10;0.10;;;;;;;;;;5060400;28;20247;-78
2022/09/25 09:19:23;;;;;;;0.10;0.10;;;;;;;;;;5044002;28;20212;-77
2022/09/25 09:21:54;;;;;;;0.10;0.10;;;;;;;;;;5059522;28;20413;-76
2022/09/25 09:24:25;;;;;;;0.10;0.10;;;;;;;;;;5044818;28;20220;-77
2022/09/25 09:27:03;;;;;;;0.10;0.10;;;;;;;;;;5059960;28;20257;-77
2022/09/25 09:29:41;;;;;;;0.07;0.07;;;;;;;;;;5042090;28;20227;-77
2022/09/25 09:32:16;;;;;;;0.10;0.10;;;;;;;;;;5063675;28;20239;-76
2022/09/25 09:34:49;;;;;;;0.10;0.10;;;;;;;;;;5041680;28;20275;-76
2022/09/25 09:37:19;;;;;;;0.10;0.10;;;;;;;;;;5063728;28;20244;-77
2022/09/25 09:39:52;;;;;;;0.10;0.10;;;;;;;;;;5042000;28;20225;-75
2022/09/25 09:42:21;;;;;;;0.00;0.00;;;;;;;;;;5063452;28;20239;-77
2022/09/25 09:44:56;;;;;;;0.10;0.10;;;;;;;;;;5041737;28;20307;-76
2022/09/25 09:47:29;;;;;;;0.10;0.10;;;;;;;;;;5063794;28;20239;-77
2022/09/25 09:50:00;;;;;;;0.10;0.10;;;;;;;;;;5041454;28;20393;-77
2022/09/25 09:52:29;;;;;;;0.00;0.00;;;;;;;;;;5063704;28;20261;-77
2022/09/25 09:54:59;;;;;;;0.10;0.10;;;;;;;;;;5045519;28;20205;-76
2022/09/25 09:57:29;;;;;;;0.10;0.10;;;;;;;;;;5066855;28;20256;-77
2022/09/25 09:59:57;;;;;;;0.10;0.10;;;;;;;;;;5044945;28;20384;-76
2022/09/25 10:02:30;;;;;;;0.05;0.05;;;;;;;;;;5067133;28;20301;-76
2022/09/25 10:04:57;;;;;;;0.10;0.10;;;;;;;;;;5045198;28;20274;-77
2022/09/25 10:07:27;;;;;;;0.00;0.00;;;;;;;;;;5066831;28;20247;-76
2022/09/25 10:09:54;;;;;;;0.00;0.00;;;;;;;;;;5044977;28;20503;-77
2022/09/25 10:12:27;;;;;;;0.00;0.00;;;;;;;;;;5067117;28;20308;-77
2022/09/25 10:14:55;;;;;;;0.10;0.10;;;;;;;;;;5045423;28;20280;-77
2022/09/25 10:17:23;;;;;;;0.08;0.08;;;;;;;;;;5066945;28;20255;-77
2022/09/25 10:19:52;;;;;;;0.00;0.00;;;;;;;;;;5044885;28;20272;-76
2022/09/25 10:22:20;;;;;;;0.10;0.10;;;;;;;;;;5066743;28;20245;-77
2022/09/25 10:24:50;;;;;;;0.08;0.08;;;;;;;;;;5044768;28;20207;-76
2022/09/25 10:27:21;;;;;;;0.00;0.00;;;;;;;;;;5066736;28;20241;-76
2022/09/25 10:30:00;;;;;;;0.00;0.00;;;;;;;;;;5044907;28;20443;-76
2022/09/25 10:32:26;;;;;;;0.00;0.00;;;;;;;;;;5066461;28;20237;-77
2022/09/25 10:34:53;;;;;;;0.00;0.00;;;;;;;;;;5044801;28;20251;-67
2022/09/25 10:37:21;;;;;;;0.10;0.10;;;;;;;;;;5066595;28;20320;-69
2022/09/25 10:40:00;;;;;;;0.00;0.00;;;;;;;;;;5044766;28;20212;-68
2022/09/25 10:42:38;;;;;;;0.10;0.10;;;;;;;;;;5066550;28;20245;-67
2022/09/25 10:45:23;;;;;;;0.10;0.10;;;;;;;;;;5044895;28;20206;-67
2022/09/25 10:50:35;;;;;;;0.00;0.00;;;;;;;;;;5026192;28;20580;-67
2022/09/25 10:53:03;;;;;;;0.00;0.00;;;;;;;;;;5068269;28;20206;-68
2022/09/25 10:55:31;;;;;;;0.05;0.05;;;;;;;;;;5040792;28;20241;-74
2022/09/25 10:58:08;;;;;;;0.10;0.10;;;;;;;;;;5069262;28;20229;-73
2022/09/25 11:00:40;;;;;;;0.10;0.10;;;;;;;;;;5041950;28;20240;-73
2022/09/25 11:03:13;;;;;;;0.00;0.00;;;;;;;;;;5066817;28;20233;-72
2022/09/25 11:05:47;;;;;;;0.10;0.10;;;;;;;;;;5042753;28;20418;-72
2022/09/25 11:08:15;;;;;;;0.10;0.10;;;;;;;;;;5053677;28;20424;-73
2022/09/25 11:10:47;;;;;;;0.10;0.10;;;;;;;;;;5043360;28;20265;-72
2022/09/25 11:13:19;;;;;;;0.00;0.00;;;;;;;;;;5065593;28;20192;-72
2022/09/25 11:15:48;;;;;;;0.00;0.00;;;;;;;;;;5044563;28;20652;-73
2022/09/25 11:18:34;;;;;;;0.00;0.00;;;;;;;;;;5064703;28;20202;-73
2022/09/25 11:21:01;;;;;;;0.05;0.05;;;;;;;;;;5048694;28;20238;-72
2022/09/25 11:23:31;;;;;;;0.10;0.10;;;;;;;;;;5060881;28;20234;-67
2022/09/25 11:25:59;;;;;;;0.00;0.00;;;;;;;;;;5047564;28;20241;-67
2022/09/25 11:28:28;;;;;;;0.10;0.10;;;;;;;;;;5061244;28;20207;-74
2022/09/25 11:31:00;;;;;;;0.00;0.00;;;;;;;;;;5046693;28;20247;-75
2022/09/25 11:33:33;;;;;;;0.00;0.00;;;;;;;;;;5061239;28;20247;-78
2022/09/25 11:36:02;;;;;;;0.08;0.08;;;;;;;;;;5048411;28;20241;-77
2022/09/25 11:41:21;;;;;;;0.10;0.10;;;;;;;;;;5052653;28;20505;-73
2022/09/25 11:43:57;;;;;;;0.10;0.10;;;;;;;;;;5055234;28;20225;-74
2022/09/25 11:46:26;;;;;;;0.00;0.00;;;;;;;;;;5054097;28;20241;-67
2022/09/25 11:49:00;;;;;;;0.10;0.10;;;;;;;;;;5053750;28;20251;-68
2022/09/25 11:51:34;;;;;;;0.10;0.10;;;;;;;;;;5054952;28;20352;-67
2022/09/25 11:54:10;;;;;;;0.00;0.00;;;;;;;;;;5051529;28;20202;-67
2022/09/25 11:56:41;;;;;;;0.00;0.00;;;;;;;;;;5057069;28;20583;-73
2022/09/25 11:59:14;;;;;;;0.08;0.08;;;;;;;;;;5049691;28;20290;-74
2022/09/25 12:01:42;;;;;;;0.10;0.10;;;;;;;;;;5057074;28;20287;-74
2022/09/25 12:04:27;;;;;;;0.00;0.00;;;;;;;;;;5050267;28;20195;-74
2022/09/25 12:07:05;;;;;;;0.00;0.00;;;;;;;;;;5061871;28;20246;-67
2022/09/25 12:09:41;;;;;;;0.10;0.10;;;;;;;;;;5043207;28;20474;-67
2022/09/25 12:12:13;;;;;;;0.10;0.10;;;;;;;;;;5064808;28;20300;-67
2022/09/25 12:14:50;;;;;;;0.10;0.10;;;;;;;;;;5043225;28;20261;-67
2022/09/25 12:17:20;;;;;;;0.10;0.10;;;;;;;;;;5064758;28;20530;-68
2022/09/25 12:19:50;;;;;;;0.00;0.00;;;;;;;;;;5042804;28;20202;-68
2022/09/25 12:22:22;;;;;;;0.10;0.10;;;;;;;;;;5064583;28;20269;-68
2022/09/25 12:24:56;;;;;;;0.08;0.08;;;;;;;;;;5042914;28;20207;-67
2022/09/25 12:27:29;;;;;;;0.10;0.10;;;;;;;;;;5064494;28;20299;-67
2022/09/25 12:30:04;;;;;;;0.00;0.00;;;;;;;;;;5042979;28;20212;-67
2022/09/25 12:32:40;;;;;;;0.10;0.10;;;;;;;;;;5031023;28;20214;-67
2022/09/25 12:35:14;;;;;;;0.10;0.10;;;;;;;;;;5033887;28;20203;-67
2022/09/25 12:37:45;;;;;;;0.10;0.10;;;;;;;;;;5042676;28;20265;-67
2022/09/25 12:40:14;;;;;;;0.10;0.10;;;;;;;;;;5033923;28;20206;-68
2022/09/25 12:42:43;;;;;;;0.00;0.00;;;;;;;;;;5071745;28;20218;-68
2022/09/25 12:45:12;;;;;;;0.00;0.00;;;;;;;;;;5033571;28;20206;-66
2022/09/25 12:47:44;;;;;;;0.00;0.00;;;;;;;;;;5072167;28;20204;-67
2022/09/25 12:50:15;;;;;;;0.10;0.10;;;;;;;;;;5033702;28;20371;-68
2022/09/25 12:52:43;;;;;;;0.10;0.10;;;;;;;;;;5071407;28;20272;-66
2022/09/25 12:55:13;;;;;;;0.08;0.08;;;;;;;;;;5033755;28;20205;-69
2022/09/25 12:57:44;;;;;;;0.00;0.00;;;;;;;;;;5071749;28;20232;-69
2022/09/25 13:00:16;;;;;;;0.08;0.08;;;;;;;;;;5033292;28;20534;-66
2022/09/25 13:02:47;;;;;;;0.00;0.00;;;;;;;;;;5070909;28;20220;-67
2022/09/25 13:05:19;;;;;;;0.05;0.05;;;;;;;;;;5034241;28;20204;-67
2022/09/25 13:07:49;;;;;;;0.05;0.05;;;;;;;;;;5070664;28;20194;-68
2022/09/25 13:10:29;;;;;;;0.00;0.00;;;;;;;;;;5034836;28;20210;-66
2022/09/25 13:12:57;;;;;;;0.10;0.10;;;;;;;;;;5067208;28;20285;-67
2022/09/25 13:15:24;;;;;;;0.05;0.05;;;;;;;;;;5036755;28;20205;-67
2022/09/25 13:17:51;;;;;;;0.00;0.00;;;;;;;;;;5068848;28;20221;-67
2022/09/25 13:20:36;;;;;;;0.10;0.10;;;;;;;;;;5034963;28;20232;-66
2022/09/25 13:23:05;;;;;;;0.00;0.00;;;;;;;;;;5065868;28;20296;-67
2022/09/25 13:25:40;;;;;;;0.10;0.10;;;;;;;;;;5038835;28;20567;-66
2022/09/25 13:28:07;;;;;;;0.10;0.10;;;;;;;;;;5066072;28;20205;-68
2022/09/25 13:30:34;;;;;;;0.10;0.10;;;;;;;;;;5043297;28;20649;-67
2022/09/25 13:33:02;;;;;;;0.10;0.10;;;;;;;;;;5070358;28;20293;-67
2022/09/25 13:35:31;;;;;;;0.00;0.00;;;;;;;;;;5041721;28;20248;-67
2022/09/25 13:38:08;;;;;;;0.00;0.00;;;;;;;;;;5071418;28;20195;-68
2022/09/25 13:40:44;;;;;;;0.00;0.00;;;;;;;;;;5043257;28;20254;-67
2022/09/25 13:43:19;;;;;;;0.10;0.10;;;;;;;;;;5067070;28;20374;-67
2022/09/25 13:45:46;;;;;;;0.10;0.10;;;;;;;;;;5045882;28;20277;-67
2022/09/25 13:48:19;;;;;;;0.10;0.10;;;;;;;;;;5066200;28;20205;-68
2022/09/25 13:50:46;;;;;;;0.10;0.10;;;;;;;;;;5045955;28;20451;-66
2022/09/25 13:53:16;;;;;;;0.10;0.10;;;;;;;;;;5066154;28;20203;-68
2022/09/25 13:56:04;;;;;;;0.00;0.00;;;;;;;;;;5045373;28;20239;-69
2022/09/25 13:58:58;;;;;;;0.08;0.08;;;;;;;;;;5060759;28;20232;-67
2022/09/25 14:01:32;;;;;;;0.10;0.10;;;;;;;;;;5056117;28;20242;-66
2022/09/25 14:03:59;;;;;;;0.10;0.10;;;;;;;;;;5053748;28;20219;-66
2022/09/25 14:06:28;;;;;;;0.00;0.00;;;;;;;;;;5056161;28;20304;-67
2022/09/25 14:08:56;;;;;;;0.10;0.10;;;;;;;;;;5053867;28;20452;-67
2022/09/25 14:11:26;;;;;;;0.10;0.10;;;;;;;;;;5055490;28;20248;-68
2022/09/25 14:13:55;;;;;;;0.10;0.10;;;;;;;;;;5055028;28;20241;-68
2022/09/25 14:16:26;;;;;;;0.10;0.10;;;;;;;;;;5055006;28;20236;-67
2022/09/25 14:18:57;;;;;;;0.00;0.00;;;;;;;;;;5055338;28;20196;-68
2022/09/25 14:21:25;;;;;;;0.00;0.00;;;;;;;;;;5055658;28;20333;-67
2022/09/25 14:23:53;;;;;;;0.10;0.10;;;;;;;;;;5055357;28;20417;-67
2022/09/25 14:26:21;;;;;;;0.10;0.10;;;;;;;;;;5054272;28;20245;-67
2022/09/25 14:28:48;;;;;;;0.10;0.10;;;;;;;;;;5056169;28;20222;-67
2022/09/25 14:31:26;;;;;;;0.08;0.08;;;;;;;;;;5053002;28;20253;-67
2022/09/25 14:34:12;;;;;;;0.10;0.10;;;;;;;;;;5048532;28;20200;-66
2022/09/25 14:36:44;;;;;;;0.10;0.10;;;;;;;;;;5059160;28;20254;-68
2022/09/25 14:39:18;;;;;;;0.10;0.10;;;;;;;;;;5049108;28;20188;-66
2022/09/25 14:41:58;;;;;;;0.10;0.10;;;;;;;;;;5060728;28;20249;-67
2022/09/25 14:44:48;;;;;;;0.10;0.10;;;;;;;;;;5045979;28;20219;-67
2022/09/25 14:47:15;;;;;;;0.10;0.10;;;;;;;;;;4961351;28;20248;-68
2022/09/25 14:49:44;;;;;;;0.10;0.10;;;;;;;;;;5044348;28;20239;-67
2022/09/25 14:52:14;;;;;;;0.10;0.10;;;;;;;;;;5066025;28;20248;-68
2022/09/25 14:54:43;;;;;;;0.00;0.00;;;;;;;;;;5044304;28;20209;-67
2022/09/25 14:57:10;;;;;;;0.10;0.10;;;;;;;;;;5065924;28;20247;-67
2022/09/25 14:59:39;;;;;;;0.10;0.10;;;;;;;;;;5043875;28;20260;-67
2022/09/25 15:02:14;;;;;;;0.10;0.10;;;;;;;;;;5065353;28;20279;-67
2022/09/25 15:04:42;;;;;;;0.10;0.10;;;;;;;;;;5043804;28;20236;-67
2022/09/25 15:07:14;;;;;;;0.10;0.10;;;;;;;;;;5065842;28;20241;-67
2022/09/25 15:09:46;;;;;;;0.10;0.10;;;;;;;;;;5043798;28;20212;-67